createdAt,value
2023-06-26T01:10:29.522Z,54.70
2023-06-26T01:12:58.586Z,54.90
2023-06-26T01:15:25.619Z,55.00
2023-06-26T01:17:53.275Z,55.30
2023-06-26T01:20:21.799Z,55.60
2023-06-26T01:23:16.131Z,55.50
2023-06-26T01:26:14.291Z,55.60
2023-06-26T01:28:45.945Z,55.40
2023-06-26T01:31:13.718Z,55.50
2023-06-26T01:33:42.359Z,55.60
2023-06-26T01:36:09.945Z,55.70
2023-06-26T01:38:37.258Z,55.80
2023-06-26T01:41:05.893Z,55.80
2023-06-26T01:44:09.229Z,56.10
2023-06-26T01:46:55.348Z,56.30
2023-06-26T01:49:35.307Z,56.30
2023-06-26T01:52:15.624Z,56.20
2023-06-26T01:55:09.028Z,56.30
2023-06-26T01:57:37.714Z,56.50
2023-06-26T02:00:06.720Z,56.50
2023-06-26T02:02:43.794Z,56.70
2023-06-26T02:05:14.546Z,56.80
2023-06-26T02:07:42.098Z,56.90
2023-06-26T02:10:09.778Z,56.90
2023-06-26T02:12:37.625Z,56.90
2023-06-26T02:15:06.567Z,57.00
2023-06-26T02:17:34.398Z,57.10
2023-06-26T02:20:01.537Z,57.20
2023-06-26T02:22:29.735Z,57.20
2023-06-26T02:24:56.846Z,57.40
2023-06-26T02:27:23.826Z,57.50
2023-06-26T02:29:50.829Z,57.60
2023-06-26T02:32:17.786Z,57.50
2023-06-26T02:34:45.516Z,57.60
2023-06-26T02:37:12.571Z,57.70
2023-06-26T02:39:39.726Z,57.90
2023-06-26T02:42:10.066Z,58.00
2023-06-26T02:44:37.143Z,58.20
2023-06-26T02:47:04.394Z,58.50
2023-06-26T02:49:31.958Z,58.70
2023-06-26T02:51:58.925Z,58.90
2023-06-26T02:54:28.818Z,58.90
2023-06-26T02:57:01.845Z,59.00
2023-06-26T02:59:31.221Z,59.20
2023-06-26T03:01:59.148Z,59.40
2023-06-26T03:04:55.355Z,59.70
2023-06-26T03:07:22.382Z,59.70
2023-06-26T03:09:49.344Z,59.80
2023-06-26T03:12:16.326Z,60.20
2023-06-26T03:14:45.850Z,60.20
2023-06-26T03:17:14.407Z,60.10
2023-06-26T03:19:43.696Z,60.00
2023-06-26T03:22:18.876Z,60.20
2023-06-26T03:24:46.893Z,60.30
2023-06-26T03:27:15.044Z,60.40
2023-06-26T03:29:44.359Z,60.60
2023-06-26T03:32:12.066Z,60.50
2023-06-26T03:34:39.420Z,60.70
2023-06-26T03:37:07.209Z,60.90
2023-06-26T03:39:34.576Z,60.70
2023-06-26T03:42:02.301Z,61.10
2023-06-26T03:44:29.477Z,61.30
2023-06-26T03:46:56.682Z,61.10
2023-06-26T03:49:24.535Z,61.30
2023-06-26T03:51:52.859Z,61.30
2023-06-26T03:54:19.917Z,61.20
2023-06-26T03:56:46.884Z,61.30
2023-06-26T03:59:13.937Z,61.50
2023-06-26T04:01:41.245Z,61.50
2023-06-26T04:04:08.279Z,61.60
2023-06-26T04:06:35.227Z,61.70
2023-06-26T04:09:03.624Z,61.80
2023-06-26T04:11:30.649Z,61.90
2023-06-26T04:13:57.668Z,62.00
2023-06-26T04:16:26.425Z,62.10
2023-06-26T04:18:54.325Z,62.10
2023-06-26T04:21:21.438Z,62.20
2023-06-26T04:23:48.899Z,61.90
2023-06-26T04:26:16.385Z,61.90
2023-06-26T04:28:43.631Z,61.80
2023-06-26T04:31:10.747Z,62.50
2023-06-26T04:33:40.933Z,61.50
2023-06-26T04:36:09.763Z,61.50
2023-06-26T04:38:36.914Z,61.70
2023-06-26T04:41:04.270Z,61.60
2023-06-26T04:43:31.390Z,61.70
2023-06-26T04:45:58.445Z,61.50
2023-06-26T04:48:25.655Z,61.70
2023-06-26T04:50:55.520Z,61.50
2023-06-26T04:53:24.071Z,61.50
2023-06-26T04:55:54.831Z,61.80
2023-06-26T04:58:22.047Z,61.60
2023-06-26T05:00:49.652Z,61.50
2023-06-26T05:03:18.996Z,61.20
2023-06-26T05:05:46.362Z,61.20
2023-06-26T05:08:39.343Z,61.20
2023-06-26T05:11:06.423Z,60.90
2023-06-26T05:13:33.447Z,61.20
2023-06-26T05:16:00.557Z,61.40
2023-06-26T05:18:27.500Z,61.00
2023-06-26T05:20:54.799Z,61.40
2023-06-26T05:23:22.569Z,61.40
2023-06-26T05:25:51.237Z,61.10
2023-06-26T05:28:18.588Z,59.90
2023-06-26T05:30:45.889Z,60.00
2023-06-26T05:33:15.601Z,60.60
2023-06-26T05:35:43.944Z,61.10
2023-06-26T05:38:11.259Z,60.10
2023-06-26T05:40:38.613Z,60.00
2023-06-26T05:43:06.149Z,59.60
2023-06-26T05:45:33.346Z,59.50
2023-06-26T05:48:00.652Z,58.90
2023-06-26T05:50:29.237Z,60.30
2023-06-26T05:52:56.580Z,58.90
2023-06-26T05:55:24.215Z,58.20
2023-06-26T05:57:52.475Z,58.30
2023-06-26T06:00:19.844Z,59.00
2023-06-26T06:02:47.077Z,57.90
2023-06-26T06:05:14.166Z,58.10
2023-06-26T06:07:41.160Z,57.20
2023-06-26T06:10:08.933Z,57.80
2023-06-26T06:12:36.011Z,56.60
2023-06-26T06:15:03.207Z,58.10
2023-06-26T06:17:30.282Z,58.10
